BIENTÔT MET'MAP
version 2.0 !

Prévue avant fin octobre,
la nouvelle version sera
plus belle, plus complète
et hébergée sur un serveur
3 fois plus puissant...
et toujours gratuite !


Pas compatible ?
Essayez la version Mobile !

SE CONNECTER : | S'inscrire | Disclaimer | Découvrir Orbifly |
Code OACI :

TAF - LCPH Pafos Int. - 27 May 2020 12:05 UTC - Data Source NOAA   


- Altitude de l'aérodrome : 41 ft
- Code IATA : PFO
- Pas de NOTAMs connus.


LCPH - Pafos Int.

Dernier METAR connu : 2015/08/11 08:00 LCPH 110800Z 25009KT 9999 SCT020 29/24 Q1010
TAF TAF LCPH
Valide du 27 à 06h jusqu'au 28 à 06h UTC


270530Z 2706/2806 25007KT 9999 FEW020
BECMG 2709/2712 31013KT

Source NOAA


MET'MAP, la Météo Aéronautique d'un coup d'oeil ! - Copyright ORBIFLY Décembre 2007

Développement & Programmation : Alexandra Zaïnal
Co-Développement : Marc-Olivier Méhu
Soutien technique & logistique : Manuel Goepfert
Conception & Financement : Baudouin d'Aumeries